Cushman, Montana
Current Conditions -  °F | °C
As of 2:20 AM on Sunday 21 Dec 2014 (Local Time) from KMVH Reporting Station
Few Clouds Few Clouds  
Wind Chill: 34°   Ceiling: Unl
Heat Index: 34°   Visibility: 10mi
Dew Point: 21°   Wind: 0mph
Humidity: 60%   Direction: NA
Pressure: 29.5"   Gusts: NA
Location:  46.4448°N, 109.102°W
Report Text: KMVH 210920Z AUTO 00000KT 10SM FEW095 01/M06 A2950 RMK A01
Loading
Personal Weather Stations






























Interactive Weather Map New forecast layout! Learn more

10-Day Weather Forecast

Advertisements
Track Severe Weather on mobile